Time;durP1;ratioP1;P1;durP2;ratioP2;P2;SDS_P1;SDS_P2;PMS_P1;PMS_P2;Temp;Humidity;BMP_temperature;BMP_pressure;BME280_temperature;BME280_humidity;BME280_pressure;Samples;Min_cycle;Max_cycle;Signal;HPM_P1;HPM_P2
2022/03/07 00:01:46;;;;;;;2.33;1.20;;;3.10;96.20;;;;;;4152302;28;20104;-87
2022/03/07 00:03:46;;;;;;;2.03;1.00;;;3.00;96.40;;;;;;4165659;28;20045;-87
2022/03/07 00:05:48;;;;;;;4.68;1.00;;;2.60;96.50;;;;;;4184907;28;20132;-88
2022/03/07 00:07:50;;;;;;;3.42;2.05;;;2.50;96.30;;;;;;4168742;28;20061;-87
2022/03/07 00:09:51;;;;;;;3.35;1.27;;;2.40;96.30;;;;;;4168165;28;20076;-87
2022/03/07 00:11:52;;;;;;;2.67;1.15;;;2.40;96.40;;;;;;4149207;28;20116;-88
2022/03/07 00:13:53;;;;;;;3.38;1.48;;;2.30;96.50;;;;;;4166245;28;20104;-88
2022/03/07 00:15:53;;;;;;;3.15;1.33;;;2.30;96.60;;;;;;4167098;28;22067;-88
2022/03/07 00:17:54;;;;;;;5.88;1.90;;;3.50;96.80;;;;;;4171095;28;20123;-88
2022/03/07 00:19:56;;;;;;;7.03;1.48;;;2.30;96.40;;;;;;4166267;28;20417;-88
2022/03/07 00:21:56;;;;;;;4.40;1.13;;;2.40;96.40;;;;;;4183473;28;20056;-88
2022/03/07 00:23:57;;;;;;;3.95;1.13;;;2.20;96.60;;;;;;4182409;28;20044;-86
2022/03/07 00:25:58;;;;;;;2.58;1.13;;;2.90;96.90;;;;;;4183662;28;20049;-88
2022/03/07 00:27:59;;;;;;;3.00;1.20;;;2.10;96.80;;;;;;4183765;28;20120;-88
2022/03/07 00:30:00;;;;;;;6.70;1.88;;;2.00;96.70;;;;;;4182465;28;20044;-87
2022/03/07 00:32:01;;;;;;;3.63;1.27;;;2.10;96.90;;;;;;4183068;28;20048;-87
2022/03/07 00:34:02;;;;;;;2.50;0.95;;;2.00;96.90;;;;;;4182275;28;20045;-87
2022/03/07 00:36:05;;;;;;;5.93;1.17;;;2.60;97.10;;;;;;4181921;28;20049;-87
2022/03/07 00:38:07;;;;;;;3.97;1.30;;;1.80;96.90;;;;;;4182072;28;20139;-87
2022/03/07 00:40:10;;;;;;;3.45;1.08;;;1.90;97.20;;;;;;4182480;28;20049;-87
2022/03/07 00:42:11;;;;;;;3.67;1.20;;;1.80;97.30;;;;;;4182246;28;20064;-87
2022/03/07 00:44:13;;;;;;;3.45;1.30;;;1.80;97.40;;;;;;4182079;28;20142;-87
2022/03/07 00:46:15;;;;;;;4.70;1.33;;;1.80;97.20;;;;;;4165803;28;20128;-88
2022/03/07 00:48:17;;;;;;;2.83;1.25;;;2.70;97.40;;;;;;4183408;28;20100;-87
2022/03/07 00:50:18;;;;;;;5.20;1.50;;;1.80;97.30;;;;;;4165052;28;20045;-88
2022/03/07 00:52:19;;;;;;;4.10;1.20;;;1.70;97.30;;;;;;4182140;28;20076;-88
2022/03/07 00:54:19;;;;;;;4.13;1.05;;;1.70;97.30;;;;;;4183012;28;20052;-88
2022/03/07 00:56:20;;;;;;;2.95;1.33;;;1.70;97.40;;;;;;4182180;28;20076;-88
2022/03/07 00:58:22;;;;;;;8.52;2.28;;;3.00;97.60;;;;;;4182967;28;20047;-87
2022/03/07 01:00:23;;;;;;;3.03;1.10;;;1.70;97.30;;;;;;4181768;28;20131;-87
2022/03/07 01:02:25;;;;;;;22.45;2.83;;;1.60;97.50;;;;;;4183181;28;20071;-87
2022/03/07 01:04:26;;;;;;;5.55;1.70;;;1.60;97.20;;;;;;4165130;28;20491;-88
2022/03/07 01:06:28;;;;;;;5.70;2.03;;;1.50;97.30;;;;;;4165356;28;20499;-87
2022/03/07 01:08:30;;;;;;;6.35;1.63;;;1.60;97.60;;;;;;4182054;28;20041;-87
2022/03/07 01:10:31;;;;;;;3.38;1.50;;;1.40;97.70;;;;;;4183103;28;20060;-87
2022/03/07 01:12:31;;;;;;;4.63;1.75;;;1.50;97.40;;;;;;4183650;28;20497;-87
2022/03/07 01:14:32;;;;;;;4.82;1.80;;;1.50;97.50;;;;;;4164874;28;20045;-87
2022/03/07 01:16:33;;;;;;;3.53;1.70;;;1.40;97.50;;;;;;4182996;28;20041;-87
2022/03/07 01:18:33;;;;;;;7.82;2.30;;;1.40;97.50;;;;;;4180387;28;20052;-87
2022/03/07 01:20:35;;;;;;;7.40;2.45;;;1.40;98.00;;;;;;4182867;28;20037;-87
2022/03/07 01:22:39;;;;;;;10.02;2.47;;;1.90;98.30;;;;;;4181768;28;20132;-87
2022/03/07 01:24:40;;;;;;;9.00;2.60;;;1.30;98.20;;;;;;4181622;28;20060;-87
2022/03/07 01:26:42;;;;;;;10.48;2.88;;;1.30;98.30;;;;;;4181977;28;20044;-87
2022/03/07 01:28:43;;;;;;;10.52;2.72;;;1.20;98.40;;;;;;4165481;28;20050;-86
2022/03/07 01:30:44;;;;;;;6.25;2.55;;;1.80;98.60;;;;;;4182342;28;20045;-87
2022/03/07 01:32:45;;;;;;;10.60;2.40;;;1.20;98.60;;;;;;4165223;28;20132;-87
2022/03/07 01:34:47;;;;;;;6.60;2.40;;;1.20;98.70;;;;;;4183006;28;20048;-87
2022/03/07 01:36:48;;;;;;;6.38;1.90;;;1.70;98.90;;;;;;4165126;28;20121;-86
2022/03/07 01:38:50;;;;;;;7.13;2.50;;;1.20;98.50;;;;;;4183372;28;20470;-86
2022/03/07 01:40:50;;;;;;;8.98;3.08;;;1.20;98.60;;;;;;4182147;28;20088;-88
2022/03/07 01:42:51;;;;;;;10.90;2.60;;;1.10;98.60;;;;;;4181514;28;20482;-86
2022/03/07 01:44:52;;;;;;;6.53;2.10;;;1.10;98.60;;;;;;4182352;28;20083;-87
2022/03/07 01:46:55;;;;;;;5.43;2.25;;;1.20;98.80;;;;;;4183692;28;20074;-87
2022/03/07 01:48:56;;;;;;;6.95;2.28;;;2.20;99.20;;;;;;4157628;28;20042;-87
2022/03/07 01:50:58;;;;;;;3.63;1.77;;;1.10;99.00;;;;;;4152670;28;20076;-87
2022/03/07 01:53:00;;;;;;;4.65;1.95;;;1.10;99.00;;;;;;4169415;28;20049;-87
2022/03/07 01:55:01;;;;;;;3.05;1.95;;;1.10;99.10;;;;;;4170328;28;20053;-86
2022/03/07 01:57:02;;;;;;;5.10;1.95;;;1.60;99.20;;;;;;4151968;28;20132;-87
2022/03/07 01:59:09;;;;;;;5.85;2.28;;;1.10;99.10;;;;;;4165791;28;20049;-87
2022/03/07 02:01:10;;;;;;;4.93;2.08;;;1.20;99.10;;;;;;4149445;28;20085;-87
2022/03/07 02:03:12;;;;;;;4.72;1.92;;;0.90;99.20;;;;;;4165138;28;20045;-87
2022/03/07 02:05:14;;;;;;;4.63;2.00;;;1.70;99.60;;;;;;4151131;28;20073;-87
2022/03/07 02:07:14;;;;;;;3.50;2.10;;;1.30;99.60;;;;;;4168285;28;20037;-88
2022/03/07 02:09:16;;;;;;;5.57;2.50;;;0.80;99.60;;;;;;4166538;28;20064;-88
2022/03/07 02:11:17;;;;;;;4.97;1.77;;;0.90;99.80;;;;;;4166317;28;20052;-87
2022/03/07 02:13:21;;;;;;;5.80;2.03;;;0.80;99.60;;;;;;4150396;28;20053;-87
2022/03/07 02:15:23;;;;;;;7.63;2.10;;;0.80;99.60;;;;;;4165657;28;20053;-87
2022/03/07 02:17:24;;;;;;;6.30;1.52;;;0.80;99.70;;;;;;4168547;28;20232;-87
2022/03/07 02:19:25;;;;;;;7.28;2.78;;;0.80;99.90;;;;;;4184392;28;20043;-86
2022/03/07 02:21:27;;;;;;;6.13;2.08;;;1.40;99.90;;;;;;4183656;28;20541;-86
2022/03/07 02:23:28;;;;;;;5.43;2.28;;;0.70;99.70;;;;;;4166287;28;20053;-87
2022/03/07 02:25:29;;;;;;;8.27;1.70;;;0.60;99.70;;;;;;4182409;28;20388;-85
2022/03/07 02:27:33;;;;;;;6.68;2.05;;;0.60;99.80;;;;;;4183915;28;20063;-87
2022/03/07 02:29:34;;;;;;;5.35;1.85;;;0.50;99.80;;;;;;4166204;28;20053;-87
2022/03/07 02:31:40;;;;;;;6.07;2.00;;;0.50;99.90;;;;;;4182537;28;20060;-87
2022/03/07 02:33:42;;;;;;;6.53;1.85;;;0.50;99.80;;;;;;4199202;28;20155;-87
2022/03/07 02:35:45;;;;;;;4.75;2.20;;;1.40;99.90;;;;;;4166170;28;20053;-87
2022/03/07 02:37:45;;;;;;;4.80;2.08;;;1.10;99.90;;;;;;4183421;28;20067;-86
2022/03/07 02:39:52;;;;;;;3.53;1.60;;;0.40;99.90;;;;;;4183207;28;20049;-87
2022/03/07 02:41:54;;;;;;;6.28;2.10;;;0.40;99.90;;;;;;4183928;28;20056;-87
2022/03/07 02:43:56;;;;;;;3.88;1.70;;;0.40;99.90;;;;;;4185024;28;20183;-86
2022/03/07 02:46:03;;;;;;;3.92;1.92;;;0.40;99.80;;;;;;4183369;28;20076;-86
2022/03/07 02:48:04;;;;;;;8.23;2.22;;;0.40;99.80;;;;;;4184183;28;20041;-86
2022/03/07 02:50:05;;;;;;;4.88;2.00;;;0.40;99.80;;;;;;4182878;28;20052;-86
2022/03/07 02:52:10;;;;;;;5.82;1.73;;;0.40;99.90;;;;;;4167688;28;20107;-86
2022/03/07 02:54:11;;;;;;;4.30;2.03;;;0.30;99.90;;;;;;4167877;28;20056;-86
2022/03/07 02:56:13;;;;;;;4.63;1.67;;;0.30;99.90;;;;;;4184636;28;20052;-87
2022/03/07 02:58:14;;;;;;;4.25;2.08;;;0.30;99.90;;;;;;4185522;28;20044;-86
2022/03/07 03:00:15;;;;;;;4.78;1.88;;;0.40;99.90;;;;;;4167491;28;20045;-86
2022/03/07 03:02:18;;;;;;;3.72;1.80;;;0.30;99.90;;;;;;4167282;28;20041;-86
2022/03/07 03:04:20;;;;;;;3.35;1.60;;;0.30;99.90;;;;;;4183350;28;20450;-86
2022/03/07 03:06:32;;;;;;;2.85;1.77;;;0.30;99.90;;;;;;4168315;28;20054;-86
2022/03/07 03:08:34;;;;;;;5.07;1.67;;;1.10;99.90;;;;;;4184867;28;20053;-86
2022/03/07 03:10:34;;;;;;;4.53;1.95;;;0.30;99.90;;;;;;4167017;28;20045;-86
2022/03/07 03:12:35;;;;;;;3.78;1.55;;;0.80;99.90;;;;;;4184867;28;20051;-86
2022/03/07 03:14:37;;;;;;;4.72;1.98;;;0.20;99.90;;;;;;4182360;28;20049;-86
2022/03/07 03:16:39;;;;;;;5.72;2.13;;;0.30;99.90;;;;;;4185638;28;20097;-87
2022/03/07 03:18:46;;;;;;;7.80;1.77;;;0.80;99.90;;;;;;4184976;28;20145;-86
2022/03/07 03:20:50;;;;;;;8.18;2.28;;;0.10;99.90;;;;;;4167543;28;20050;-87
2022/03/07 03:22:53;;;;;;;6.53;1.80;;;0.10;99.90;;;;;;4167319;28;20060;-86
2022/03/07 03:24:53;;;;;;;5.93;1.67;;;0.70;99.90;;;;;;4184903;28;20045;-86
2022/03/07 03:27:00;;;;;;;5.05;1.50;;;0.00;99.90;;;;;;4184252;28;20096;-86
2022/03/07 03:29:00;;;;;;;4.30;1.70;;;0.00;99.90;;;;;;4185429;28;20063;-86
2022/03/07 03:31:02;;;;;;;3.92;1.45;;;0.00;99.90;;;;;;4184080;28;20120;-87
2022/03/07 03:33:05;;;;;;;4.65;1.70;;;0.00;99.90;;;;;;4185928;28;20064;-87
2022/03/07 03:35:09;;;;;;;7.38;1.98;;;0.40;99.90;;;;;;4188793;28;20048;-87
2022/03/07 03:37:11;;;;;;;3.63;1.85;;;0.00;99.90;;;;;;4188463;28;20056;-86
2022/03/07 03:39:13;;;;;;;4.63;1.80;;;0.00;99.90;;;;;;4171234;28;20060;-86
2022/03/07 03:41:15;;;;;;;4.88;2.10;;;0.50;99.90;;;;;;4189179;28;20044;-86
2022/03/07 03:43:17;;;;;;;4.15;1.60;;;0.00;99.90;;;;;;4186297;28;20080;-87
2022/03/07 03:45:18;;;;;;;4.38;1.60;;;0.80;99.90;;;;;;4169903;28;20104;-88
2022/03/07 03:47:20;;;;;;;6.60;2.20;;;-0.10;99.90;;;;;;4186991;28;20033;-87
2022/03/07 03:49:23;;;;;;;3.65;1.70;;;-0.20;99.90;;;;;;4188360;28;20045;-87
2022/03/07 03:51:25;;;;;;;6.40;2.35;;;-0.20;99.90;;;;;;4188353;28;20056;-87
2022/03/07 03:53:27;;;;;;;4.53;1.88;;;-0.20;99.90;;;;;;4171312;28;20057;-87
2022/03/07 03:55:27;;;;;;;4.63;1.88;;;0.50;99.90;;;;;;4188806;28;20088;-87
2022/03/07 03:57:34;;;;;;;3.80;1.55;;;-0.20;99.90;;;;;;4186725;28;20048;-87
2022/03/07 03:59:38;;;;;;;2.70;1.50;;;-0.20;99.90;;;;;;4187268;28;20063;-87
2022/03/07 04:01:38;;;;;;;2.35;1.27;;;-0.20;99.90;;;;;;4187609;28;20083;-87
2022/03/07 04:03:40;;;;;;;5.07;2.17;;;-0.20;99.90;;;;;;4186477;28;20116;-87
2022/03/07 04:05:43;;;;;;;3.25;1.65;;;0.00;99.90;;;;;;4187664;28;20327;-87
2022/03/07 04:07:44;;;;;;;4.65;1.73;;;-0.30;99.90;;;;;;4170358;28;20055;-88
2022/03/07 04:09:46;;;;;;;3.35;1.65;;;-0.40;99.90;;;;;;4188307;28;20041;-87
2022/03/07 04:11:47;;;;;;;8.20;2.08;;;-0.40;99.90;;;;;;4188684;28;20494;-86
2022/03/07 04:13:48;;;;;;;3.33;1.40;;;-0.40;99.90;;;;;;4186706;28;20051;-87
2022/03/07 04:15:49;;;;;;;5.25;1.83;;;0.40;99.90;;;;;;4170341;28;20136;-87
2022/03/07 04:17:51;;;;;;;2.92;1.60;;;-0.40;99.90;;;;;;4169868;28;20053;-86
2022/03/07 04:19:54;;;;;;;6.57;1.70;;;0.00;99.90;;;;;;4170104;28;20045;-86
2022/03/07 04:21:54;;;;;;;3.70;1.40;;;0.60;99.90;;;;;;4186867;28;20051;-88
2022/03/07 04:23:56;;;;;;;6.22;2.00;;;-0.20;99.90;;;;;;4186878;28;20533;-86
2022/03/07 04:25:58;;;;;;;2.20;1.48;;;-0.30;99.90;;;;;;4188713;28;20055;-87
2022/03/07 04:28:02;;;;;;;3.88;1.63;;;-0.30;99.90;;;;;;4187930;28;20053;-87
2022/03/07 04:30:07;;;;;;;6.38;1.58;;;-0.40;99.90;;;;;;4188011;28;20063;-87
2022/03/07 04:32:07;;;;;;;4.50;1.83;;;-0.40;99.90;;;;;;4169510;28;20050;-87
2022/03/07 04:34:12;;;;;;;4.22;1.90;;;-0.40;99.90;;;;;;4187054;28;20045;-87
2022/03/07 04:36:20;;;;;;;4.50;1.85;;;-0.40;99.90;;;;;;4188254;28;20048;-86
2022/03/07 04:38:26;;;;;;;5.68;1.92;;;-0.50;99.90;;;;;;4188071;28;20057;-88
2022/03/07 04:40:35;;;;;;;7.07;1.67;;;-0.50;99.90;;;;;;4187129;28;20543;-87
2022/03/07 04:42:40;;;;;;;5.07;2.60;;;0.10;99.90;;;;;;4188258;28;20125;-86
2022/03/07 04:44:43;;;;;;;3.55;2.13;;;-0.60;99.90;;;;;;4186850;28;20087;-86
2022/03/07 04:46:45;;;;;;;3.83;1.63;;;-0.60;99.90;;;;;;4187016;28;20049;-86
2022/03/07 04:48:47;;;;;;;2.47;1.33;;;-0.70;99.90;;;;;;4188698;28;20453;-87
2022/03/07 04:50:51;;;;;;;3.03;1.40;;;-0.70;99.90;;;;;;4188691;28;20037;-87
2022/03/07 04:52:54;;;;;;;3.50;1.85;;;-0.70;99.90;;;;;;4171094;28;20053;-87
2022/03/07 04:54:55;;;;;;;4.90;1.77;;;-0.60;99.90;;;;;;4170706;28;20473;-87
2022/03/07 04:56:57;;;;;;;3.70;1.58;;;-0.60;99.90;;;;;;4187672;28;20101;-87
2022/03/07 04:58:58;;;;;;;6.85;1.80;;;-0.60;99.90;;;;;;4169233;28;20053;-87
2022/03/07 05:01:01;;;;;;;3.72;1.55;;;-0.60;99.90;;;;;;4169443;28;20148;-86
2022/03/07 05:03:02;;;;;;;4.50;1.67;;;-0.60;99.90;;;;;;4187345;28;20080;-86
2022/03/07 05:05:03;;;;;;;8.95;1.88;;;-0.60;99.90;;;;;;4187223;28;20040;-88
2022/03/07 05:07:10;;;;;;;3.45;1.67;;;-0.70;99.90;;;;;;4186540;28;20410;-87
2022/03/07 05:09:16;;;;;;;5.00;1.98;;;-0.70;99.90;;;;;;4185656;28;20064;-87
2022/03/07 05:11:18;;;;;;;4.10;1.55;;;-0.80;99.90;;;;;;4185436;28;20055;-86
2022/03/07 05:13:21;;;;;;;5.47;1.75;;;-0.80;99.90;;;;;;4170110;28;20605;-87
2022/03/07 05:15:24;;;;;;;5.30;1.73;;;0.10;99.90;;;;;;4185992;28;20056;-87
2022/03/07 05:17:24;;;;;;;3.88;1.88;;;-0.40;99.90;;;;;;4167508;28;20045;-87
2022/03/07 05:19:25;;;;;;;7.28;1.95;;;-0.40;99.90;;;;;;4169484;28;20088;-87
2022/03/07 05:21:26;;;;;;;4.00;1.70;;;-0.80;99.90;;;;;;4152963;28;20124;-87
2022/03/07 05:23:30;;;;;;;3.15;1.95;;;-0.40;99.90;;;;;;4170266;28;20054;-87
2022/03/07 05:25:32;;;;;;;6.40;2.20;;;-0.80;99.90;;;;;;4169539;28;20041;-86
2022/03/07 05:27:35;;;;;;;2.95;1.58;;;-0.80;99.90;;;;;;4152888;28;20049;-88
2022/03/07 05:29:37;;;;;;;4.53;1.90;;;-0.80;99.90;;;;;;4152763;28;20054;-87
2022/03/07 05:31:41;;;;;;;4.22;2.17;;;-0.90;99.90;;;;;;4170682;28;20056;-86
2022/03/07 05:33:44;;;;;;;3.83;2.25;;;-1.00;99.90;;;;;;4169515;28;20053;-88
2022/03/07 05:35:47;;;;;;;7.68;2.97;;;-0.90;99.90;;;;;;4171435;28;20590;-87
2022/03/07 05:37:48;;;;;;;4.78;2.83;;;-0.60;99.90;;;;;;4153259;28;20058;-87
2022/03/07 05:39:51;;;;;;;7.38;3.72;;;-0.90;99.90;;;;;;4170121;28;20446;-87
2022/03/07 05:41:52;;;;;;;8.90;3.78;;;-0.90;99.90;;;;;;4152819;28;20057;-87
2022/03/07 05:43:55;;;;;;;7.65;3.58;;;-0.90;99.90;;;;;;4169303;28;20041;-87
2022/03/07 05:46:01;;;;;;;7.07;2.60;;;-0.60;99.90;;;;;;4171066;28;20479;-87
2022/03/07 05:48:02;;;;;;;4.63;2.83;;;-0.50;99.90;;;;;;4171127;28;20042;-88
2022/03/07 05:50:04;;;;;;;6.38;3.08;;;-1.00;99.90;;;;;;4153377;28;20088;-87
2022/03/07 05:52:06;;;;;;;5.85;2.72;;;-0.90;99.90;;;;;;4186556;28;20053;-87
2022/03/07 05:54:08;;;;;;;18.08;3.38;;;-0.90;99.90;;;;;;4169995;28;20487;-87
2022/03/07 05:56:10;;;;;;;4.35;2.40;;;-0.90;99.90;;;;;;4170300;28;20522;-87
2022/03/07 05:58:11;;;;;;;4.15;2.30;;;-0.90;99.90;;;;;;4152233;28;20053;-86
2022/03/07 06:00:13;;;;;;;6.82;2.70;;;-0.90;99.90;;;;;;4152953;28;20479;-88
2022/03/07 06:02:15;;;;;;;5.05;3.20;;;-0.90;99.90;;;;;;4152396;28;20064;-87
2022/03/07 06:04:16;;;;;;;7.20;3.55;;;-0.40;99.90;;;;;;4168146;28;20056;-87
2022/03/07 06:06:18;;;;;;;8.15;3.03;;;-0.80;99.90;;;;;;4168661;28;20053;-87
2022/03/07 06:08:20;;;;;;;12.95;4.75;;;-0.80;99.90;;;;;;4169959;28;20064;-87
2022/03/07 06:10:21;;;;;;;7.65;3.65;;;-0.90;99.90;;;;;;4151939;28;20050;-88
2022/03/07 06:12:26;;;;;;;9.55;3.30;;;-0.90;99.90;;;;;;4171758;28;20049;-86
2022/03/07 06:14:28;;;;;;;11.23;3.47;;;-0.90;99.90;;;;;;4168957;28;20045;-87
2022/03/07 06:16:30;;;;;;;12.40;4.65;;;-0.30;99.90;;;;;;4152019;28;20076;-87
2022/03/07 06:18:30;;;;;;;8.32;3.47;;;-0.70;99.90;;;;;;4157341;28;20101;-87
2022/03/07 06:20:32;;;;;;;7.32;2.85;;;-0.30;99.90;;;;;;4167703;28;20045;-87
2022/03/07 06:22:34;;;;;;;6.18;3.00;;;-0.80;99.90;;;;;;4151701;28;20050;-87
2022/03/07 06:24:35;;;;;;;6.40;2.50;;;-0.80;99.90;;;;;;4182120;28;20079;-87
2022/03/07 06:26:37;;;;;;;8.15;2.95;;;-0.80;99.90;;;;;;4186238;28;20175;-87
2022/03/07 06:28:38;;;;;;;6.38;2.53;;;-0.50;99.90;;;;;;4184456;28;20049;-88
2022/03/07 06:30:39;;;;;;;6.47;2.92;;;-0.80;99.90;;;;;;4184550;28;20053;-88
2022/03/07 06:32:40;;;;;;;9.68;3.20;;;-0.80;99.90;;;;;;4167941;28;20084;-88
2022/03/07 06:34:41;;;;;;;7.53;3.60;;;-0.60;99.90;;;;;;4168293;28;20057;-87
2022/03/07 06:36:43;;;;;;;9.35;4.38;;;-0.80;99.90;;;;;;4174130;28;20068;-86
2022/03/07 06:38:45;;;;;;;7.13;3.70;;;-0.50;99.90;;;;;;4169796;28;20060;-87
2022/03/07 06:40:46;;;;;;;10.57;3.70;;;-0.80;99.90;;;;;;4151641;28;20132;-86
2022/03/07 06:42:47;;;;;;;10.13;4.47;;;-0.80;99.90;;;;;;4169529;28;20551;-87
2022/03/07 06:44:49;;;;;;;7.43;3.38;;;-0.70;99.90;;;;;;4169531;28;20077;-87
2022/03/07 06:46:51;;;;;;;13.57;4.97;;;0.10;99.90;;;;;;4152748;28;20077;-87
2022/03/07 06:48:51;;;;;;;7.38;3.42;;;0.70;99.90;;;;;;4152550;28;20053;-87
2022/03/07 06:50:55;;;;;;;7.68;3.60;;;-0.70;99.90;;;;;;4168845;28;20049;-87
2022/03/07 06:52:58;;;;;;;10.18;4.18;;;-0.70;99.90;;;;;;4168825;28;20077;-87
2022/03/07 06:55:02;;;;;;;6.88;2.85;;;-0.60;99.90;;;;;;4168076;28;20046;-87
2022/03/07 06:57:03;;;;;;;7.03;2.95;;;-0.50;99.90;;;;;;4150430;28;20069;-87
2022/03/07 06:59:06;;;;;;;7.30;2.85;;;1.00;99.90;;;;;;4152517;28;20048;-87
2022/03/07 07:01:10;;;;;;;6.93;3.10;;;0.30;99.90;;;;;;4185130;28;20033;-87
2022/03/07 07:03:12;;;;;;;6.20;2.85;;;-0.20;99.90;;;;;;4167428;28;20056;-87
2022/03/07 07:05:16;;;;;;;4.90;2.83;;;-0.10;99.90;;;;;;4166940;28;20079;-88
2022/03/07 07:07:18;;;;;;;8.00;3.17;;;0.00;99.90;;;;;;4181750;28;20072;-88
2022/03/07 07:09:20;;;;;;;6.63;2.97;;;0.10;99.90;;;;;;4169246;28;20246;-90
2022/03/07 07:11:21;;;;;;;5.93;3.30;;;0.30;99.90;;;;;;4169825;28;20081;-87
2022/03/07 07:13:23;;;;;;;7.07;2.88;;;0.90;99.90;;;;;;4185502;28;20041;-87
2022/03/07 07:15:23;;;;;;;8.38;3.80;;;2.10;99.90;;;;;;4187215;28;20045;-88
2022/03/07 07:17:24;;;;;;;5.60;3.28;;;1.50;99.90;;;;;;4186623;28;20415;-88
2022/03/07 07:19:27;;;;;;;5.07;3.28;;;1.80;99.90;;;;;;4186412;28;20087;-88
2022/03/07 07:21:29;;;;;;;10.10;2.88;;;2.00;99.90;;;;;;4184411;28;20049;-87
2022/03/07 07:23:29;;;;;;;6.25;3.30;;;2.10;99.90;;;;;;4168403;28;20096;-88
2022/03/07 07:25:30;;;;;;;8.02;2.90;;;2.20;99.90;;;;;;4185141;28;20044;-88
2022/03/07 07:27:31;;;;;;;12.60;3.53;;;2.30;99.90;;;;;;4168315;28;20468;-88
2022/03/07 07:29:32;;;;;;;9.60;3.10;;;2.40;99.90;;;;;;4168413;28;20107;-89
2022/03/07 07:31:33;;;;;;;4.60;2.92;;;2.40;99.90;;;;;;4185713;28;20403;-86
2022/03/07 07:33:34;;;;;;;10.90;3.70;;;3.10;99.90;;;;;;4184830;28;20052;-88
2022/03/07 07:35:36;;;;;;;8.63;3.67;;;2.70;99.90;;;;;;4184711;28;20049;-87
2022/03/07 07:37:37;;;;;;;9.40;3.03;;;3.10;99.90;;;;;;4184407;28;20045;-88
2022/03/07 07:39:38;;;;;;;6.60;3.42;;;3.30;99.90;;;;;;4186205;28;20037;-87
2022/03/07 07:41:39;;;;;;;10.75;4.00;;;4.10;99.90;;;;;;4184858;28;20132;-88
2022/03/07 07:43:41;;;;;;;6.93;3.00;;;3.60;99.90;;;;;;4184418;28;20059;-90
2022/03/07 07:45:43;;;;;;;7.15;4.15;;;4.10;99.90;;;;;;4184187;28;20060;-88
2022/03/07 07:47:44;;;;;;;7.88;3.28;;;3.70;99.90;;;;;;4167999;28;20053;-88
2022/03/07 07:49:44;;;;;;;5.88;2.58;;;3.90;99.90;;;;;;4184428;28;20133;-88
2022/03/07 07:51:46;;;;;;;5.70;2.60;;;4.60;99.90;;;;;;4185697;28;20858;-88
2022/03/07 07:53:49;;;;;;;4.57;2.22;;;4.30;99.90;;;;;;4184623;28;20064;-87
2022/03/07 07:55:50;;;;;;;8.13;2.65;;;4.80;99.90;;;;;;4185369;28;20102;-87
2022/03/07 07:57:51;;;;;;;10.77;3.78;;;;;;;;;;4183551;28;20048;-87
2022/03/07 07:59:52;;;;;;;7.53;3.03;;;;;;;;;;4184742;28;20060;-87
2022/03/07 08:01:55;;;;;;;6.35;2.22;;;;;;;;;;4183920;28;20135;-87
2022/03/07 08:03:56;;;;;;;7.57;2.28;;;;;;;;;;4166199;28;20045;-88
2022/03/07 08:05:58;;;;;;;7.65;2.42;;;;;;;;;;4184101;28;20045;-87
2022/03/07 08:07:59;;;;;;;6.57;2.55;;;;;;;;;;4185234;28;20072;-87
2022/03/07 08:10:01;;;;;;;3.72;2.45;;;;;;;;;;4183345;28;20049;-88
2022/03/07 08:12:02;;;;;;;8.25;2.20;;;;;;;;;;4196080;28;20048;-88
2022/03/07 08:14:03;;;;;;;4.40;2.35;;;;;;;;;;4185369;28;20049;-88
2022/03/07 08:16:05;;;;;;;5.32;1.70;;;;;;;;;;4186395;28;20041;-88
2022/03/07 08:18:07;;;;;;;5.05;1.73;;;;;;;;;;4195169;28;20049;-87
2022/03/07 08:20:08;;;;;;;3.42;1.55;;;;;;;;;;4194333;28;20063;-87
2022/03/07 08:22:09;;;;;;;3.10;1.40;;;;;;;;;;4196436;28;20068;-86
2022/03/07 08:24:11;;;;;;;5.20;1.63;;;;;;;;;;4193196;28;20057;-87
2022/03/07 08:26:13;;;;;;;5.22;1.77;;;;;;;;;;4167081;28;20050;-88
2022/03/07 08:28:14;;;;;;;6.18;1.33;;;;;;;;;;4184752;28;20047;-88
2022/03/07 08:30:17;;;;;;;6.30;1.95;;;;;;;;;;4183385;28;20499;-88
2022/03/07 08:32:18;;;;;;;3.03;1.40;;;;;;;;;;4182223;28;20057;-88
2022/03/07 08:34:27;;;;;;;2.85;1.40;;;;;;;;;;4181023;28;20049;-88
2022/03/07 08:36:30;;;;;;;5.07;1.13;;;;;;;;;;4152811;28;20053;-87
2022/03/07 08:38:32;;;;;;;9.20;1.52;;;;;;;;;;4178657;28;20033;-89
2022/03/07 08:40:33;;;;;;;7.00;1.20;;;;;;;;;;4183496;28;20068;-89
2022/03/07 08:42:34;;;;;;;6.28;1.38;;;;;;;;;;4182774;28;20044;-89
2022/03/07 08:44:35;;;;;;;2.90;1.02;;;;;;;;;;4181453;28;20052;-87
2022/03/07 08:46:38;;;;;;;2.80;1.10;;;;;;;;;;4185010;28;20047;-88
2022/03/07 08:48:39;;;;;;;3.13;1.30;;;;;;;;;;4167444;28;20080;-87
2022/03/07 08:50:42;;;;;;;2.10;1.00;;;;;;;;;;4184183;28;20192;-88
2022/03/07 08:52:44;;;;;;;3.30;1.08;;;;;;;;;;4182500;28;20051;-87
2022/03/07 08:54:46;;;;;;;3.90;1.00;;;;;;;;;;4182708;28;20052;-87
2022/03/07 08:56:47;;;;;;;3.70;1.02;;;;;;;;;;4182889;28;20057;-87
2022/03/07 08:58:49;;;;;;;3.15;1.05;;;;;;;;;;4185015;28;20561;-87
2022/03/07 09:00:53;;;;;;;2.45;1.17;;;;;;;;;;4183110;28;20160;-88
2022/03/07 09:02:54;;;;;;;2.45;1.10;;;;;;;;;;4183276;28;20056;-88
2022/03/07 09:04:55;;;;;;;1.92;0.90;;;;;;;;;;4182382;28;20128;-87
2022/03/07 09:06:56;;;;;;;4.32;0.80;;;;;;;;;;4184384;28;20095;-88
2022/03/07 09:08:57;;;;;;;3.75;1.50;;;;;;;;;;4183283;28;20603;-88
2022/03/07 09:10:59;;;;;;;2.22;0.77;;;;;;;;;;4183365;28;20432;-87
2022/03/07 09:13:00;;;;;;;2.97;1.42;;;;;;;;;;4183500;28;20091;-88
2022/03/07 09:15:03;;;;;;;2.47;0.75;;;;;;;;;;4182787;28;20045;-87
2022/03/07 09:17:04;;;;;;;4.10;0.80;;;;;;;;;;4179746;28;20466;-88
2022/03/07 09:19:05;;;;;;;3.13;0.82;;;;;;;;;;4181333;28;20638;-87
2022/03/07 09:21:07;;;;;;;1.27;0.63;;;;;;;;;;4184731;28;20080;-87
2022/03/07 09:23:09;;;;;;;1.73;0.77;;;;;;;;;;4184342;28;20041;-88
2022/03/07 09:25:10;;;;;;;1.90;1.08;;;;;;;;;;4184337;28;20418;-87
2022/03/07 09:27:11;;;;;;;4.57;1.02;;;;;;;;;;4166389;28;20041;-87
2022/03/07 09:29:12;;;;;;;3.25;0.70;;;;;;;;;;4167004;28;20045;-88
2022/03/07 09:31:14;;;;;;;3.97;0.75;;;;;;;;;;4184200;28;20068;-87
2022/03/07 09:33:15;;;;;;;1.30;0.80;;;;;;;;;;4183840;28;20053;-86
2022/03/07 09:35:16;;;;;;;5.90;1.02;;;;;;;;;;4183507;28;20048;-88
2022/03/07 09:37:18;;;;;;;3.22;1.10;;;;;;;;;;4183330;28;20731;-86
2022/03/07 09:39:19;;;;;;;2.63;0.80;;;;;;;;;;4184824;28;20538;-88
2022/03/07 09:41:20;;;;;;;3.25;0.98;;;;;;;;;;4186196;28;20048;-88
2022/03/07 09:43:22;;;;;;;4.45;0.82;;;;;;;;;;4181528;28;20052;-89
2022/03/07 09:45:23;;;;;;;2.13;0.80;;;;;;;;;;4188459;28;20460;-89
2022/03/07 09:47:25;;;;;;;4.15;0.90;;;;;;;;;;4182975;28;20418;-87
2022/03/07 09:49:26;;;;;;;3.13;1.00;;;;;;;;;;4182737;28;20048;-86
2022/03/07 09:51:30;;;;;;;6.25;1.65;;;;;;;;;;4180972;28;20041;-87
2022/03/07 09:53:31;;;;;;;2.65;0.90;;;;;;;;;;4182981;28;20045;-86
2022/03/07 09:55:33;;;;;;;4.78;1.10;;;;;;;;;;4165705;28;20087;-85
2022/03/07 09:57:34;;;;;;;2.85;0.82;;;;;;;;;;4184193;28;20040;-87
2022/03/07 09:59:35;;;;;;;3.63;0.93;;;;;;;;;;4183627;28;20037;-88
2022/03/07 10:01:37;;;;;;;3.55;1.20;;;;;;;;;;4183799;28;20384;-87
2022/03/07 10:03:38;;;;;;;3.10;0.93;;;;;;;;;;4183863;28;20037;-87
2022/03/07 10:05:42;;;;;;;3.10;0.70;;;;;;;;;;4185287;28;20045;-86
2022/03/07 10:07:44;;;;;;;4.65;0.90;;;;;;;;;;4183155;28;20471;-86
2022/03/07 10:09:46;;;;;;;3.95;0.90;;;;;;;;;;4182358;28;20036;-86
2022/03/07 10:11:53;;;;;;;8.40;1.25;;;;;;;;;;4183724;28;20069;-88
2022/03/07 10:14:04;;;;;;;8.82;1.52;;;;;;;;;;4181715;28;20169;-87
2022/03/07 10:16:06;;;;;;;3.22;0.63;;;;;;;;;;4182441;28;20048;-86
2022/03/07 10:18:10;;;;;;;6.25;1.60;;;;;;;;;;4182383;28;20094;-87
2022/03/07 10:20:12;;;;;;;4.95;0.82;;;;;;;;;;4181068;28;20053;-87
2022/03/07 10:22:24;;;;;;;3.63;0.90;;;;;;;;;;4180991;28;20483;-87
2022/03/07 10:24:34;;;;;;;5.82;1.15;;;;;;;;;;4182208;28;20041;-87
2022/03/07 10:26:35;;;;;;;;;;;;;;;;;;4180242;28;20076;-87
2022/03/07 10:28:37;;;;;;;3.90;0.70;;;;;;;;;;4180776;28;20436;-88
2022/03/07 10:30:39;;;;;;;5.18;0.73;;;;;;;;;;4179795;28;20045;-87
2022/03/07 10:32:40;;;;;;;4.28;0.77;;;;;;;;;;4180739;28;20064;-87
2022/03/07 10:34:41;;;;;;;2.72;0.60;;;;;;;;;;4174927;28;20053;-87
2022/03/07 10:36:43;;;;;;;2.47;0.50;;;;;;;;;;4181118;28;20045;-87
2022/03/07 10:38:46;;;;;;;3.70;0.57;;;;;;;;;;4179674;28;20048;-87
2022/03/07 10:40:52;;;;;;;4.07;0.70;;;;;;;;;;4181759;28;20041;-86
2022/03/07 10:42:54;;;;;;;3.33;0.65;;;;;;;;;;4182112;28;20057;-86
2022/03/07 10:45:01;;;;;;;3.42;0.68;;;;;;;;;;4187718;28;20052;-87
2022/03/07 10:47:10;;;;;;;8.43;1.77;;;;;;;;;;4184096;28;20110;-87
2022/03/07 10:49:12;;;;;;;2.88;1.15;;;;;;;;;;4188501;28;20532;-87
2022/03/07 10:51:15;;;;;;;6.68;1.55;;;;;;;;;;4188540;28;20053;-88
2022/03/07 10:53:16;;;;;;;4.25;0.68;;;;;;;;;;4177511;28;20124;-88
2022/03/07 10:55:23;;;;;;;3.53;0.80;;;;;;;;;;4186949;28;20048;-87
2022/03/07 10:57:24;;;;;;;2.50;0.90;;;;;;;;;;4186539;28;20033;-86
2022/03/07 10:59:30;;;;;;;2.67;0.70;;;;;;;;;;4180763;28;20086;-86
2022/03/07 11:01:33;;;;;;;6.32;0.75;;;;;;;;;;4187822;28;20479;-87
2022/03/07 11:03:38;;;;;;;3.17;0.73;;;;;;;;;;4190888;28;20052;-84
2022/03/07 11:05:39;;;;;;;1.92;0.60;;;;;;;;;;4175415;28;20041;-85